createdAt,value
2022-12-29T00:00:08.205Z,52.23
2022-12-29T00:01:09.841Z,56.40
2022-12-29T00:02:11.999Z,50.27
2022-12-29T00:03:13.670Z,55.03
2022-12-29T00:04:16.275Z,57.40
2022-12-29T00:05:17.865Z,58.13
2022-12-29T00:06:19.429Z,58.23
2022-12-29T00:07:20.948Z,54.60
2022-12-29T00:08:40.253Z,56.40
2022-12-29T00:09:42.373Z,56.20
2022-12-29T00:10:43.913Z,52.87
2022-12-29T00:11:45.656Z,58.10
2022-12-29T00:13:05.684Z,56.27
2022-12-29T00:14:26.329Z,54.07
2022-12-29T00:15:40.232Z,53.13
2022-12-29T00:16:44.602Z,57.40
2022-12-29T00:17:46.169Z,56.67
2022-12-29T00:18:48.032Z,55.67
2022-12-29T00:20:08.260Z,58.63
2022-12-29T00:21:36.951Z,58.57
2022-12-29T00:22:57.253Z,60.77
2022-12-29T00:24:17.028Z,57.40
2022-12-29T00:25:37.476Z,58.60
2022-12-29T00:26:57.586Z,62.37
2022-12-29T00:28:18.149Z,61.90
2022-12-29T00:29:38.190Z,67.53
2022-12-29T00:30:58.508Z,69.10
2022-12-29T00:32:18.346Z,61.50
2022-12-29T00:33:41.015Z,61.70
2022-12-29T00:35:01.191Z,60.73
2022-12-29T00:36:28.093Z,63.27
2022-12-29T00:37:48.283Z,58.17
2022-12-29T00:39:12.815Z,65.00
2022-12-29T00:40:33.174Z,60.97
2022-12-29T00:41:53.800Z,61.03
2022-12-29T00:43:13.774Z,61.63
2022-12-29T00:44:16.005Z,65.50
2022-12-29T00:45:17.548Z,62.70
2022-12-29T00:46:20.436Z,64.03
2022-12-29T00:47:22.176Z,68.37
2022-12-29T00:48:42.274Z,65.20
2022-12-29T00:49:43.902Z,64.17
2022-12-29T00:50:45.444Z,63.77
2022-12-29T00:51:47.225Z,66.70
2022-12-29T00:52:48.745Z,65.33
2022-12-29T00:53:50.253Z,66.30
2022-12-29T00:54:51.793Z,63.17
2022-12-29T00:55:53.369Z,58.93
2022-12-29T00:56:55.038Z,62.87
2022-12-29T00:57:56.597Z,60.83
2022-12-29T00:59:02.578Z,61.77
2022-12-29T01:00:04.502Z,62.97
2022-12-29T01:01:08.275Z,58.70
2022-12-29T01:02:11.341Z,57.03
2022-12-29T01:03:13.064Z,61.80
2022-12-29T01:04:15.687Z,59.40
2022-12-29T01:05:17.225Z,62.33
2022-12-29T01:06:19.920Z,54.87
2022-12-29T01:07:21.659Z,59.17
2022-12-29T01:08:23.389Z,59.23
2022-12-29T01:09:43.503Z,58.83
2022-12-29T01:10:45.076Z,56.63
2022-12-29T01:11:46.665Z,55.67
2022-12-29T01:12:48.444Z,54.63
2022-12-29T01:13:49.983Z,57.67
2022-12-29T01:14:51.551Z,57.23
2022-12-29T01:15:54.209Z,56.43
2022-12-29T01:16:56.540Z,57.20
2022-12-29T01:17:58.139Z,54.67
2022-12-29T01:19:00.529Z,54.80
2022-12-29T01:20:03.445Z,57.17
2022-12-29T01:21:07.162Z,53.17
2022-12-29T01:22:08.735Z,55.87
2022-12-29T01:23:10.357Z,56.53
2022-12-29T01:24:12.072Z,59.80
2022-12-29T01:25:13.612Z,56.47
2022-12-29T01:26:17.831Z,55.90
2022-12-29T01:27:19.698Z,55.60
2022-12-29T01:28:25.896Z,56.07
2022-12-29T01:29:27.985Z,55.70
2022-12-29T01:30:29.577Z,55.23
2022-12-29T01:31:31.280Z,54.93
2022-12-29T01:32:32.902Z,58.30
2022-12-29T01:33:34.518Z,53.60
2022-12-29T01:34:36.098Z,53.70
2022-12-29T01:35:37.615Z,54.60
2022-12-29T01:36:39.211Z,53.33
2022-12-29T01:37:40.729Z,54.07
2022-12-29T01:38:42.922Z,59.00
2022-12-29T01:39:44.744Z,54.83
2022-12-29T01:40:47.332Z,54.67
2022-12-29T01:41:48.920Z,53.63
2022-12-29T01:42:50.509Z,52.93
2022-12-29T01:43:57.555Z,50.83
2022-12-29T01:45:02.684Z,49.13
2022-12-29T01:46:04.297Z,52.47
2022-12-29T01:47:07.108Z,52.07
2022-12-29T01:48:10.864Z,50.67
2022-12-29T01:49:17.432Z,52.37
2022-12-29T01:50:35.375Z,51.83
2022-12-29T01:51:40.097Z,50.33
2022-12-29T01:52:47.701Z,49.13
2022-12-29T01:53:49.362Z,48.53
2022-12-29T01:54:54.846Z,52.43
2022-12-29T01:56:02.048Z,52.03
2022-12-29T01:57:09.198Z,55.20
2022-12-29T01:58:14.776Z,55.97
2022-12-29T01:59:21.923Z,57.17
2022-12-29T02:00:23.677Z,63.60
2022-12-29T02:01:25.480Z,65.40
2022-12-29T02:02:32.464Z,63.93
2022-12-29T02:03:35.987Z,62.20
2022-12-29T02:04:45.232Z,65.27
2022-12-29T02:06:03.372Z,62.90
2022-12-29T02:07:10.972Z,67.40
2022-12-29T02:08:13.501Z,68.37
2022-12-29T02:09:15.041Z,70.33
2022-12-29T02:10:16.805Z,74.43
2022-12-29T02:11:20.049Z,71.50
2022-12-29T02:12:24.610Z,69.60
2022-12-29T02:13:26.647Z,72.50
2022-12-29T02:14:28.182Z,76.10
2022-12-29T02:15:49.998Z,67.50
2022-12-29T02:17:18.847Z,79.00
2022-12-29T02:18:44.638Z,74.03
2022-12-29T02:20:04.484Z,76.13
2022-12-29T02:21:43.481Z,78.23
2022-12-29T02:23:08.418Z,78.30
2022-12-29T02:24:35.018Z,82.77
2022-12-29T02:25:51.763Z,74.27
2022-12-29T02:26:56.306Z,75.27
2022-12-29T02:28:16.699Z,72.57
2022-12-29T02:29:35.623Z,75.40
2022-12-29T02:30:55.982Z,71.00
2022-12-29T02:32:06.802Z,73.27
2022-12-29T02:33:44.196Z,70.53
2022-12-29T02:35:07.135Z,75.20
2022-12-29T02:36:36.942Z,72.97
2022-12-29T02:37:44.318Z,67.20
2022-12-29T02:39:14.911Z,71.17
2022-12-29T02:40:45.742Z,67.50
2022-12-29T02:42:19.198Z,69.80
2022-12-29T02:43:21.229Z,78.30
2022-12-29T02:44:43.315Z,71.53
2022-12-29T02:46:04.357Z,76.80
2022-12-29T02:47:10.544Z,81.27
2022-12-29T02:48:19.056Z,80.57
2022-12-29T02:49:28.810Z,87.70
2022-12-29T02:50:45.248Z,108.47
2022-12-29T02:51:49.324Z,111.43
2022-12-29T02:52:58.061Z,112.73
2022-12-29T02:54:18.833Z,111.17
2022-12-29T02:55:20.444Z,109.57
2022-12-29T02:56:22.781Z,105.83
2022-12-29T02:57:24.332Z,107.63
2022-12-29T02:58:25.992Z,105.10
2022-12-29T02:59:27.777Z,94.60
2022-12-29T03:00:29.794Z,86.23
2022-12-29T03:02:17.382Z,74.13
2022-12-29T03:03:30.742Z,69.37
2022-12-29T03:04:38.089Z,63.20
2022-12-29T03:06:17.296Z,59.57
2022-12-29T03:07:41.194Z,62.17
2022-12-29T03:08:50.730Z,66.83
2022-12-29T03:10:22.875Z,62.70
2022-12-29T03:11:50.966Z,58.17
2022-12-29T03:13:24.168Z,60.90
2022-12-29T03:14:51.692Z,61.63
2022-12-29T03:16:08.319Z,60.30
2022-12-29T03:17:20.781Z,58.33
2022-12-29T03:18:58.387Z,58.93
2022-12-29T03:20:08.749Z,60.50
2022-12-29T03:21:45.300Z,60.20
2022-12-29T03:22:50.619Z,60.90
2022-12-29T03:23:52.512Z,60.83
2022-12-29T03:25:00.212Z,65.73
2022-12-29T03:26:07.995Z,56.70
2022-12-29T03:27:14.773Z,60.27
2022-12-29T03:28:22.908Z,60.80
2022-12-29T03:29:25.578Z,61.73
2022-12-29T03:30:29.593Z,59.67
2022-12-29T03:31:31.427Z,60.40
2022-12-29T03:32:43.106Z,55.87
2022-12-29T03:33:46.429Z,60.83
2022-12-29T03:34:50.012Z,60.33
2022-12-29T03:35:55.394Z,61.23
2022-12-29T03:37:09.191Z,57.10
2022-12-29T03:38:14.901Z,63.77
2022-12-29T03:39:19.524Z,63.10
2022-12-29T03:40:23.987Z,61.33
2022-12-29T03:41:29.614Z,61.20
2022-12-29T03:42:35.022Z,60.10
2022-12-29T03:43:36.796Z,59.77
2022-12-29T03:44:41.084Z,57.87
2022-12-29T03:45:42.695Z,59.90
2022-12-29T03:46:44.350Z,58.40
2022-12-29T03:47:46.010Z,56.63
2022-12-29T03:48:47.538Z,57.73
2022-12-29T03:49:50.289Z,60.40
2022-12-29T03:50:51.862Z,60.53
2022-12-29T03:51:53.432Z,61.80
2022-12-29T03:52:54.979Z,65.63
2022-12-29T03:53:56.763Z,62.83
2022-12-29T03:54:58.312Z,54.90
2022-12-29T03:55:59.921Z,52.80
2022-12-29T03:57:01.532Z,57.00
2022-12-29T03:58:03.142Z,59.17
2022-12-29T03:59:04.671Z,54.67
2022-12-29T04:00:07.513Z,58.57
2022-12-29T04:01:09.270Z,53.87
2022-12-29T04:02:10.937Z,56.63
2022-12-29T04:03:12.589Z,55.73
2022-12-29T04:04:14.256Z,58.60
2022-12-29T04:05:16.189Z,56.37
2022-12-29T04:06:17.761Z,51.80
2022-12-29T04:07:19.350Z,49.97
2022-12-29T04:08:20.911Z,53.13
2022-12-29T04:09:22.428Z,52.53
2022-12-29T04:10:24.056Z,55.43
2022-12-29T04:11:31.231Z,52.00
2022-12-29T04:12:34.665Z,56.80
2022-12-29T04:13:36.229Z,52.73
2022-12-29T04:14:37.785Z,53.47
2022-12-29T04:15:39.409Z,53.83
2022-12-29T04:16:41.191Z,53.20
2022-12-29T04:17:42.951Z,50.27
2022-12-29T04:18:44.469Z,52.37
2022-12-29T04:19:46.063Z,53.80
2022-12-29T04:21:03.902Z,52.53
2022-12-29T04:22:05.565Z,54.23
2022-12-29T04:23:07.984Z,51.53
2022-12-29T04:24:09.626Z,58.57
2022-12-29T04:25:11.192Z,56.23
2022-12-29T04:26:12.909Z,58.27
2022-12-29T04:27:14.439Z,51.27
2022-12-29T04:28:17.272Z,53.77
2022-12-29T04:29:20.583Z,57.80
2022-12-29T04:30:22.108Z,61.70
2022-12-29T04:31:23.737Z,62.33
2022-12-29T04:32:25.380Z,67.57
2022-12-29T04:33:27.007Z,65.03
2022-12-29T04:34:28.534Z,63.03
2022-12-29T04:35:30.101Z,61.80
2022-12-29T04:36:31.693Z,66.83
2022-12-29T04:37:33.292Z,65.30
2022-12-29T04:38:35.770Z,65.00
2022-12-29T04:39:37.334Z,66.33
2022-12-29T04:40:40.743Z,67.70
2022-12-29T04:41:42.270Z,64.53
2022-12-29T04:42:43.813Z,63.23
2022-12-29T04:43:45.420Z,67.33
2022-12-29T04:44:47.067Z,59.87
2022-12-29T04:45:48.902Z,61.57
2022-12-29T04:46:50.488Z,57.93
2022-12-29T04:47:52.046Z,59.77
2022-12-29T04:48:53.685Z,58.37
2022-12-29T04:49:55.275Z,57.90
2022-12-29T04:50:56.843Z,58.67
2022-12-29T04:51:58.398Z,52.57
2022-12-29T04:52:59.917Z,58.27
2022-12-29T04:54:01.494Z,58.63
2022-12-29T04:55:03.221Z,60.03
2022-12-29T04:56:05.185Z,62.23
2022-12-29T04:57:06.796Z,64.97
2022-12-29T04:58:08.387Z,61.43
2022-12-29T04:59:09.956Z,63.30
2022-12-29T05:00:12.276Z,56.37
2022-12-29T05:01:14.026Z,59.90
2022-12-29T05:02:16.687Z,59.83
2022-12-29T05:03:20.293Z,56.33
2022-12-29T05:04:22.018Z,57.07
2022-12-29T05:05:23.647Z,55.10
2022-12-29T05:06:25.221Z,52.43
2022-12-29T05:07:26.862Z,49.77
2022-12-29T05:08:28.800Z,55.73
2022-12-29T05:09:30.935Z,57.20
2022-12-29T05:10:32.536Z,55.07
2022-12-29T05:11:34.061Z,53.13
2022-12-29T05:12:38.167Z,57.27
2022-12-29T05:13:39.767Z,54.23
2022-12-29T05:14:41.408Z,54.43
2022-12-29T05:15:56.420Z,55.30
2022-12-29T05:17:54.424Z,59.33
2022-12-29T05:18:56.013Z,47.33
2022-12-29T05:19:57.704Z,49.30
2022-12-29T05:20:59.763Z,49.07
2022-12-29T05:22:01.428Z,45.50
2022-12-29T05:23:03.076Z,47.97
2022-12-29T05:24:05.016Z,43.60
2022-12-29T05:25:06.909Z,41.90
2022-12-29T05:26:08.608Z,46.50
2022-12-29T05:27:10.227Z,43.43
2022-12-29T05:28:11.830Z,44.97
2022-12-29T05:29:13.437Z,43.60
2022-12-29T05:30:15.111Z,42.97
2022-12-29T05:31:16.702Z,45.97
2022-12-29T05:32:18.970Z,42.90
2022-12-29T05:33:20.654Z,43.43
2022-12-29T05:34:22.299Z,43.80
2022-12-29T05:35:23.939Z,43.33
2022-12-29T05:36:25.619Z,42.57
2022-12-29T05:37:27.140Z,47.63
2022-12-29T05:38:28.680Z,44.37
2022-12-29T05:39:30.474Z,46.97
2022-12-29T05:40:32.009Z,43.17
2022-12-29T05:41:35.302Z,43.03
2022-12-29T05:42:36.873Z,49.37
2022-12-29T05:43:38.399Z,44.60
2022-12-29T05:44:39.906Z,44.07
2022-12-29T05:45:41.465Z,47.53
2022-12-29T05:46:43.109Z,43.90
2022-12-29T05:47:44.714Z,46.70
2022-12-29T05:48:46.249Z,46.40
2022-12-29T05:49:47.843Z,44.87
2022-12-29T05:50:50.860Z,45.23
2022-12-29T05:52:44.950Z,43.73
2022-12-29T05:53:46.776Z,46.87
2022-12-29T05:54:48.345Z,43.83
2022-12-29T05:55:50.597Z,44.17
2022-12-29T05:56:52.189Z,46.20
2022-12-29T05:57:53.812Z,43.30
2022-12-29T05:58:55.404Z,42.67
2022-12-29T05:59:56.956Z,47.23
2022-12-29T06:00:58.543Z,42.57
2022-12-29T06:02:00.299Z,48.80
2022-12-29T06:03:02.609Z,44.50
2022-12-29T06:04:04.558Z,42.37
2022-12-29T06:05:06.465Z,46.70
2022-12-29T06:06:08.164Z,44.60
2022-12-29T06:07:09.727Z,44.37
2022-12-29T06:08:11.244Z,41.83
2022-12-29T06:09:12.890Z,43.70
2022-12-29T06:10:14.496Z,41.53
2022-12-29T06:11:16.091Z,40.33
2022-12-29T06:12:17.708Z,42.97
2022-12-29T06:13:19.299Z,43.63
2022-12-29T06:14:21.296Z,44.20
2022-12-29T06:15:23.010Z,40.50
2022-12-29T06:16:24.853Z,42.93
2022-12-29T06:17:26.479Z,42.10
2022-12-29T06:18:28.115Z,37.90
2022-12-29T06:19:29.638Z,39.20
2022-12-29T06:20:31.157Z,40.80
2022-12-29T06:21:32.708Z,44.63
2022-12-29T06:22:34.360Z,36.97
2022-12-29T06:23:35.964Z,41.33
2022-12-29T06:24:37.569Z,40.30
2022-12-29T06:25:39.108Z,39.67
2022-12-29T06:26:41.256Z,41.00
2022-12-29T06:27:43.199Z,42.83
2022-12-29T06:28:44.715Z,40.93
2022-12-29T06:29:47.133Z,43.27
2022-12-29T06:30:49.653Z,39.00
2022-12-29T06:31:52.161Z,42.73
2022-12-29T06:32:53.926Z,40.40
2022-12-29T06:33:55.489Z,41.57
2022-12-29T06:34:57.025Z,43.73
2022-12-29T06:35:58.564Z,41.87
2022-12-29T06:37:00.203Z,46.83
2022-12-29T06:38:01.837Z,44.87
2022-12-29T06:39:03.455Z,43.20
2022-12-29T06:40:05.530Z,42.87
2022-12-29T06:41:07.130Z,40.07
2022-12-29T06:42:10.293Z,37.40
2022-12-29T06:43:12.015Z,42.30
2022-12-29T06:44:13.576Z,42.97
2022-12-29T06:45:15.194Z,40.30
2022-12-29T06:46:16.822Z,38.07
2022-12-29T06:47:19.524Z,42.67
2022-12-29T06:48:21.155Z,41.33
2022-12-29T06:49:22.739Z,41.77
2022-12-29T06:50:24.340Z,39.00
2022-12-29T06:51:25.919Z,40.80
2022-12-29T06:52:29.516Z,39.37
2022-12-29T06:53:31.068Z,39.57
2022-12-29T06:54:34.431Z,38.57
2022-12-29T06:55:36.251Z,43.30
2022-12-29T06:56:37.862Z,38.10
2022-12-29T06:57:39.452Z,40.03
2022-12-29T06:58:41.095Z,36.77
2022-12-29T06:59:42.670Z,38.13
2022-12-29T07:00:44.326Z,40.17
2022-12-29T07:01:46.014Z,38.97
2022-12-29T07:02:47.783Z,38.37
2022-12-29T07:03:49.568Z,38.63
2022-12-29T07:04:51.157Z,34.67
2022-12-29T07:05:52.710Z,40.53
2022-12-29T07:06:57.169Z,39.77
2022-12-29T07:07:59.141Z,38.93
2022-12-29T07:09:00.747Z,37.67
2022-12-29T07:10:02.310Z,41.13
2022-12-29T07:11:03.955Z,39.00
2022-12-29T07:12:05.727Z,40.10
2022-12-29T07:13:08.798Z,41.73
2022-12-29T07:14:12.024Z,41.37
2022-12-29T07:15:13.833Z,40.27
2022-12-29T07:16:15.575Z,40.10
2022-12-29T07:17:17.121Z,42.47
2022-12-29T07:18:18.819Z,38.43
2022-12-29T07:19:20.466Z,38.43
2022-12-29T07:20:26.778Z,38.57
2022-12-29T07:21:28.652Z,44.83
2022-12-29T07:22:30.161Z,49.73
2022-12-29T07:23:32.236Z,51.57
2022-12-29T07:24:33.820Z,52.37
2022-12-29T07:25:36.950Z,58.10
2022-12-29T07:26:38.567Z,71.33
2022-12-29T07:27:40.124Z,77.60
2022-12-29T07:28:42.874Z,78.83
2022-12-29T07:29:44.468Z,74.30
2022-12-29T07:30:47.083Z,71.17
2022-12-29T07:31:48.688Z,68.00
2022-12-29T07:32:50.358Z,54.60
2022-12-29T07:33:51.944Z,63.83
2022-12-29T07:34:53.623Z,59.87
2022-12-29T07:35:55.218Z,59.27
2022-12-29T07:36:56.888Z,58.43
2022-12-29T07:37:58.518Z,63.93
2022-12-29T07:39:00.150Z,65.80
2022-12-29T07:40:04.540Z,74.93
2022-12-29T07:41:06.412Z,74.50
2022-12-29T07:42:08.118Z,65.13
2022-12-29T07:43:09.848Z,66.60
2022-12-29T07:44:11.431Z,66.23
2022-12-29T07:45:13.175Z,56.60
2022-12-29T07:46:55.947Z,61.03
2022-12-29T07:47:36.362Z,66.17
2022-12-29T07:48:38.151Z,68.30
2022-12-29T07:49:39.764Z,65.13
2022-12-29T07:50:41.335Z,72.27
2022-12-29T07:51:42.919Z,71.13
2022-12-29T07:52:45.820Z,67.60
2022-12-29T07:53:47.365Z,68.87
2022-12-29T07:54:48.906Z,65.03
2022-12-29T07:55:50.485Z,58.80
2022-12-29T07:56:52.403Z,60.07
2022-12-29T07:57:55.331Z,65.83
2022-12-29T07:58:56.920Z,58.30
2022-12-29T07:59:58.619Z,59.97
2022-12-29T08:01:00.402Z,60.83
2022-12-29T08:02:02.214Z,53.87
2022-12-29T08:03:03.983Z,52.33
2022-12-29T08:04:06.434Z,66.13
2022-12-29T08:05:08.356Z,63.07
2022-12-29T08:06:11.632Z,54.67
2022-12-29T08:07:13.246Z,59.73
2022-12-29T08:08:14.803Z,59.33
2022-12-29T08:09:21.953Z,57.33
2022-12-29T08:10:24.689Z,54.00
2022-12-29T08:11:26.207Z,60.60
2022-12-29T08:12:27.832Z,53.33
2022-12-29T08:13:29.395Z,54.77
2022-12-29T08:14:31.049Z,54.33
2022-12-29T08:15:32.890Z,55.30
2022-12-29T08:16:34.591Z,58.50
2022-12-29T08:17:36.266Z,55.40
2022-12-29T08:18:37.819Z,54.67
2022-12-29T08:19:39.646Z,53.43
2022-12-29T08:20:41.578Z,57.17
2022-12-29T08:21:43.223Z,54.50
2022-12-29T08:22:44.732Z,57.13
2022-12-29T08:23:46.269Z,61.93
2022-12-29T08:24:47.896Z,51.03
2022-12-29T08:25:58.536Z,55.90
2022-12-29T08:27:06.281Z,60.20
2022-12-29T08:28:13.694Z,54.73
2022-12-29T08:29:15.269Z,58.83
2022-12-29T08:30:17.487Z,54.83
2022-12-29T08:31:19.161Z,56.47
2022-12-29T08:32:20.911Z,55.43
2022-12-29T08:33:22.510Z,50.37
2022-12-29T08:34:24.157Z,50.90
2022-12-29T08:35:25.876Z,53.47
2022-12-29T08:36:27.464Z,50.57
2022-12-29T08:37:31.294Z,54.50
2022-12-29T08:38:33.456Z,55.10
2022-12-29T08:39:35.457Z,48.40
2022-12-29T08:40:36.980Z,58.60
2022-12-29T08:41:38.579Z,47.67
2022-12-29T08:42:40.307Z,54.60
2022-12-29T08:43:41.881Z,50.20
2022-12-29T08:44:43.636Z,52.43
2022-12-29T08:45:45.246Z,48.87
2022-12-29T08:46:46.864Z,51.47
2022-12-29T08:47:48.446Z,52.00
2022-12-29T08:48:50.011Z,53.87
2022-12-29T08:49:51.559Z,55.37
2022-12-29T08:50:53.220Z,57.97
2022-12-29T08:51:54.887Z,48.60
2022-12-29T08:52:56.496Z,52.30
2022-12-29T08:53:58.161Z,49.07
2022-12-29T08:54:59.724Z,53.50
2022-12-29T08:56:05.144Z,50.83
2022-12-29T08:57:07.308Z,46.17
2022-12-29T08:58:08.896Z,51.93
2022-12-29T08:59:10.448Z,53.87
2022-12-29T09:00:12.364Z,62.90
2022-12-29T09:01:14.282Z,56.83
2022-12-29T09:02:22.060Z,52.20
2022-12-29T09:04:03.788Z,61.73
2022-12-29T09:04:48.111Z,58.07
2022-12-29T09:05:50.826Z,63.53
2022-12-29T09:06:52.392Z,63.27
2022-12-29T09:07:53.960Z,58.47
2022-12-29T09:08:56.472Z,59.77
2022-12-29T09:09:58.071Z,58.33
2022-12-29T09:11:11.828Z,61.13
2022-12-29T09:12:13.531Z,60.17
2022-12-29T09:13:16.453Z,61.00
2022-12-29T09:14:18.024Z,56.57
2022-12-29T09:15:19.543Z,59.27
2022-12-29T09:16:23.686Z,57.97
2022-12-29T09:17:44.563Z,61.60
2022-12-29T09:18:46.492Z,61.20
2022-12-29T09:19:48.121Z,57.10
2022-12-29T09:20:49.693Z,61.63
2022-12-29T09:21:51.237Z,59.60
2022-12-29T09:22:52.772Z,59.57
2022-12-29T09:23:54.359Z,57.50
2022-12-29T09:24:55.906Z,60.10
2022-12-29T09:25:57.789Z,62.40
2022-12-29T09:26:59.321Z,57.10
2022-12-29T09:28:00.912Z,61.30
2022-12-29T09:29:02.422Z,63.47
2022-12-29T09:30:05.427Z,64.50
2022-12-29T09:31:07.613Z,70.90
2022-12-29T09:32:13.922Z,67.37
2022-12-29T09:33:19.393Z,66.40
2022-12-29T09:34:20.980Z,61.77
2022-12-29T09:35:22.573Z,67.63
2022-12-29T09:36:24.102Z,61.60
2022-12-29T09:37:25.845Z,58.07
2022-12-29T09:38:28.424Z,53.03
2022-12-29T09:39:30.030Z,51.10
2022-12-29T09:40:34.219Z,48.63
2022-12-29T09:41:44.150Z,42.73
2022-12-29T09:42:59.170Z,39.40
2022-12-29T09:44:34.643Z,37.40
2022-12-29T09:45:44.540Z,39.00
2022-12-29T09:46:50.760Z,47.63
2022-12-29T09:47:52.961Z,44.50
2022-12-29T09:49:00.106Z,43.33
2022-12-29T09:50:12.282Z,47.73
2022-12-29T09:51:18.294Z,57.40
2022-12-29T09:52:32.444Z,54.47
2022-12-29T09:54:03.415Z,48.47
2022-12-29T09:55:14.344Z,52.77
2022-12-29T09:56:22.813Z,52.80
2022-12-29T09:57:37.049Z,57.47
2022-12-29T09:59:01.141Z,53.37
2022-12-29T10:00:13.925Z,51.40
2022-12-29T10:01:42.624Z,49.00
2022-12-29T10:02:50.104Z,56.67
2022-12-29T10:03:54.357Z,51.57
2022-12-29T10:04:55.993Z,49.30
2022-12-29T10:06:08.991Z,48.47
2022-12-29T10:07:31.954Z,46.33
2022-12-29T10:08:40.454Z,48.93
2022-12-29T10:10:11.196Z,43.37
2022-12-29T10:11:32.568Z,45.60
2022-12-29T10:12:48.624Z,44.97
2022-12-29T10:14:15.735Z,47.60
2022-12-29T10:16:00.925Z,45.90
2022-12-29T10:17:34.388Z,43.60
2022-12-29T10:18:38.689Z,48.37
2022-12-29T10:20:36.352Z,47.83
2022-12-29T10:22:11.685Z,47.43
2022-12-29T10:23:33.327Z,53.80
2022-12-29T10:24:38.815Z,52.27
2022-12-29T10:25:43.179Z,50.50
2022-12-29T10:26:46.839Z,55.73
2022-12-29T10:27:50.150Z,49.53
2022-12-29T10:28:54.874Z,52.60
2022-12-29T10:29:57.340Z,53.83
2022-12-29T10:31:06.754Z,53.60
2022-12-29T10:32:33.235Z,52.03
2022-12-29T10:33:41.521Z,56.00
2022-12-29T10:34:48.317Z,50.37
2022-12-29T10:35:51.108Z,48.43
2022-12-29T10:36:59.659Z,52.97
2022-12-29T10:38:13.180Z,54.07
2022-12-29T10:39:29.614Z,53.87
2022-12-29T10:40:58.738Z,56.60
2022-12-29T10:42:27.332Z,54.27
2022-12-29T10:43:38.327Z,50.93
2022-12-29T10:44:39.939Z,49.33
2022-12-29T10:45:41.637Z,61.60
2022-12-29T10:46:44.953Z,58.93
2022-12-29T10:48:00.673Z,57.13
2022-12-29T10:49:02.919Z,58.83
2022-12-29T10:50:05.650Z,54.97
2022-12-29T10:51:09.641Z,53.43
2022-12-29T10:52:12.828Z,56.87
2022-12-29T10:53:22.972Z,50.23
2022-12-29T10:54:34.384Z,51.10
2022-12-29T10:55:39.172Z,52.00
2022-12-29T10:56:46.035Z,49.33
2022-12-29T10:57:48.785Z,48.70
2022-12-29T10:58:51.687Z,54.80
2022-12-29T10:59:53.336Z,45.57
2022-12-29T11:00:55.885Z,46.10
2022-12-29T11:02:12.824Z,48.17
2022-12-29T11:03:27.949Z,45.03
2022-12-29T11:04:54.169Z,44.33
2022-12-29T11:06:22.472Z,46.10
2022-12-29T11:07:27.270Z,43.07
2022-12-29T11:08:42.057Z,42.30
2022-12-29T11:09:44.510Z,40.20
2022-12-29T11:10:47.242Z,43.80
2022-12-29T11:11:48.885Z,46.23
2022-12-29T11:12:58.013Z,44.00
2022-12-29T11:14:26.966Z,42.40
2022-12-29T11:15:28.902Z,44.47
2022-12-29T11:16:35.848Z,44.17
2022-12-29T11:17:57.109Z,43.63
2022-12-29T11:18:59.408Z,44.73
2022-12-29T11:20:28.356Z,41.93
2022-12-29T11:21:41.434Z,32.63
2022-12-29T11:22:45.223Z,33.43
2022-12-29T11:23:57.385Z,34.47
2022-12-29T11:25:11.267Z,32.67
2022-12-29T11:26:23.905Z,30.67
2022-12-29T11:27:27.335Z,21.30
2022-12-29T11:28:31.655Z,27.03
2022-12-29T11:29:43.863Z,24.43
2022-12-29T11:30:45.459Z,26.87
2022-12-29T11:31:52.795Z,23.10
2022-12-29T11:32:56.312Z,28.47
2022-12-29T11:33:57.888Z,25.33
2022-12-29T11:35:00.131Z,20.83
2022-12-29T11:36:14.945Z,22.63
2022-12-29T11:37:28.141Z,22.00
2022-12-29T11:38:37.134Z,15.60
2022-12-29T11:39:50.943Z,16.07
2022-12-29T11:40:52.868Z,12.97
2022-12-29T11:41:55.007Z,13.97
2022-12-29T11:43:03.590Z,12.10
2022-12-29T11:44:06.858Z,16.30
2022-12-29T11:45:17.560Z,14.27
2022-12-29T11:46:24.864Z,16.40
2022-12-29T11:47:32.926Z,14.43
2022-12-29T11:48:41.610Z,13.53
2022-12-29T11:49:51.204Z,11.03
2022-12-29T11:51:01.966Z,13.43
2022-12-29T11:52:03.736Z,12.23
2022-12-29T11:53:28.002Z,14.37
2022-12-29T11:54:37.240Z,15.57
2022-12-29T11:55:38.870Z,15.00
2022-12-29T11:56:43.472Z,13.20
2022-12-29T11:57:45.984Z,11.93
2022-12-29T11:58:50.380Z,12.83
2022-12-29T11:59:57.142Z,16.07
2022-12-29T12:01:03.385Z,14.47
2022-12-29T12:02:16.138Z,13.50
2022-12-29T12:03:23.759Z,15.80
2022-12-29T12:04:35.321Z,14.40
2022-12-29T12:05:46.458Z,12.93
2022-12-29T12:07:10.065Z,14.23
2022-12-29T12:08:24.373Z,17.50
2022-12-29T12:09:35.550Z,15.53
2022-12-29T12:10:45.909Z,16.40
2022-12-29T12:11:48.233Z,12.33
2022-12-29T12:12:57.398Z,17.93
2022-12-29T12:14:13.013Z,17.67
2022-12-29T12:15:23.115Z,15.63
2022-12-29T12:16:40.841Z,15.10
2022-12-29T12:17:56.497Z,15.60
2022-12-29T12:19:04.909Z,16.53
2022-12-29T12:20:19.231Z,15.73
2022-12-29T12:21:45.433Z,15.13
2022-12-29T12:23:06.718Z,16.73
2022-12-29T12:24:40.377Z,13.43
2022-12-29T12:25:53.092Z,14.43
2022-12-29T12:27:20.428Z,16.47
2022-12-29T12:28:36.970Z,13.87
2022-12-29T12:29:56.398Z,19.63
2022-12-29T12:31:01.042Z,13.60
2022-12-29T12:32:16.197Z,17.13
2022-12-29T12:33:28.975Z,13.73
2022-12-29T12:34:38.092Z,12.90
2022-12-29T12:36:03.809Z,16.80
2022-12-29T12:37:53.207Z,15.20
2022-12-29T12:39:12.236Z,13.93
2022-12-29T12:40:19.943Z,14.80
2022-12-29T12:41:27.340Z,17.70
2022-12-29T12:42:44.171Z,16.03
2022-12-29T12:43:52.041Z,15.27
2022-12-29T12:45:21.041Z,18.57
2022-12-29T12:46:50.177Z,19.10
2022-12-29T12:47:59.440Z,25.20
2022-12-29T12:49:35.353Z,18.60
2022-12-29T12:51:08.218Z,17.57
2022-12-29T12:52:16.041Z,21.73
2022-12-29T12:53:26.330Z,22.13
2022-12-29T12:55:11.925Z,15.30
2022-12-29T12:56:25.739Z,15.80
2022-12-29T12:57:48.910Z,17.00
2022-12-29T12:58:50.426Z,18.60
2022-12-29T13:00:01.946Z,20.97
2022-12-29T13:01:23.720Z,16.00
2022-12-29T13:02:59.282Z,14.73
2022-12-29T13:04:37.784Z,18.63
2022-12-29T13:05:56.532Z,17.87
2022-12-29T13:07:35.327Z,17.73
2022-12-29T13:09:03.047Z,17.23
2022-12-29T13:10:34.083Z,21.37
2022-12-29T13:11:38.233Z,16.60
2022-12-29T13:12:56.547Z,19.20
2022-12-29T13:14:22.525Z,17.20
2022-12-29T13:15:30.042Z,20.70
2022-12-29T13:16:37.557Z,19.77
2022-12-29T13:17:54.910Z,19.10
2022-12-29T13:19:11.641Z,22.63
2022-12-29T13:20:40.345Z,15.93
2022-12-29T13:22:03.879Z,14.80
2022-12-29T13:23:24.437Z,13.07
2022-12-29T13:24:41.289Z,13.07
2022-12-29T13:25:51.438Z,12.20
2022-12-29T13:27:19.452Z,11.40
2022-12-29T13:28:50.812Z,14.10
2022-12-29T13:30:11.167Z,20.33
2022-12-29T13:31:17.017Z,17.63
2022-12-29T13:32:35.237Z,15.13
2022-12-29T13:33:46.310Z,16.77
2022-12-29T13:34:54.609Z,14.40
2022-12-29T13:36:02.472Z,14.87
2022-12-29T13:37:15.757Z,18.10
2022-12-29T13:38:40.336Z,18.10
2022-12-29T13:39:55.574Z,17.80
2022-12-29T13:41:03.191Z,16.63
2022-12-29T13:42:06.351Z,16.03
2022-12-29T13:43:08.311Z,16.20
2022-12-29T13:44:17.465Z,18.07
2022-12-29T13:45:25.830Z,19.50
2022-12-29T13:46:47.724Z,15.23
2022-12-29T13:47:53.551Z,13.57
2022-12-29T13:49:07.583Z,15.80
2022-12-29T13:50:22.045Z,12.80
2022-12-29T13:51:28.107Z,13.60
2022-12-29T13:52:44.027Z,16.53
2022-12-29T13:54:13.318Z,17.67
2022-12-29T13:55:41.655Z,12.83
2022-12-29T13:57:09.557Z,11.50
2022-12-29T13:58:33.181Z,13.60
2022-12-29T13:59:45.424Z,13.90
2022-12-29T14:00:59.395Z,16.57
2022-12-29T14:02:10.933Z,13.93
2022-12-29T14:03:31.298Z,14.13
2022-12-29T14:04:35.963Z,14.43
2022-12-29T14:05:37.515Z,16.20
2022-12-29T14:06:41.670Z,16.00
2022-12-29T14:07:43.525Z,14.57
2022-12-29T14:08:46.088Z,15.43
2022-12-29T14:09:52.905Z,15.17
2022-12-29T14:10:54.657Z,19.20
2022-12-29T14:11:56.215Z,16.73
2022-12-29T14:13:04.196Z,13.73
2022-12-29T14:14:19.941Z,15.20
2022-12-29T14:15:25.327Z,14.10
2022-12-29T14:16:35.555Z,15.33
2022-12-29T14:17:38.837Z,15.80
2022-12-29T14:18:44.903Z,16.23
2022-12-29T14:19:47.188Z,16.97
2022-12-29T14:21:12.816Z,13.37
2022-12-29T14:22:14.372Z,16.87
2022-12-29T14:23:26.561Z,15.03
2022-12-29T14:24:39.806Z,19.30
2022-12-29T14:26:06.362Z,16.10
2022-12-29T14:27:10.878Z,18.77
2022-12-29T14:28:26.831Z,17.63
2022-12-29T14:29:31.122Z,17.23
2022-12-29T14:30:50.692Z,21.43
2022-12-29T14:31:53.817Z,19.03